• Join FlightAware (Why Join?)
  • Login
  • US Flag 
09:35AM EDT


 

Airport Tracker/Info


-or-


 

Live Flight TrackerFlight Track Log ✈ EJA643 ✈ 22-Apr-2012 ✈ KPIT - KMCO

Flight Track Log - Related Links

Times and Time Zones

All times are in EDT time to prevent confusion due to time zone crossing. See the EJA643 flight status page for this flight to view local times or setup timezone preferences in your user account.

Time Position Orientation Groundspeed Altitude Reporting Facility
EDT Latitude Longitude Course Direction KTS MPH feet Rate Location/Type
04:39PM 40.4640 -80.2368 104° East  Level FlightAware Approximate
04:39PM 40.4542 -80.1858 183° South 221 254 3,400  Level FAA TRACON SMA TRACON (SMA)
04:40PM 40.4097 -80.1889 182° South 258 297 4,600 1,200 Climbing FAA TRACON SMA TRACON (SMA)
04:41PM 40.3592 -80.1917 183° South 271 312 5,000 660 Climbing FAA TRACON SMA TRACON (SMA)
04:41PM 40.3056 -80.1953 183° South 276 318 5,500 1,800 Climbing FAA TRACON SMA TRACON (SMA)
04:42PM 40.2572 -80.1986 184° South 271 312 7,500 3,300 Climbing FAA TRACON SMA TRACON (SMA)
04:43PM 40.2044 -80.2031 183° South 278 320 9,900 3,360 Climbing FAA TRACON SMA TRACON (SMA)
04:43PM 40.1461 -80.2075 182° South 299 344 12,000 3,180 Climbing FAA TRACON SMA TRACON (SMA)
04:44PM 40.0911 -80.2103 184° South 309 356 14,200 3,360 Climbing FAA TRACON SMA TRACON (SMA)
04:45PM 40.0333 -80.2153 183° South 308 354 16,600 3,360 Climbing FAA TRACON SMA TRACON (SMA)
04:45PM 39.9797 -80.2194 183° South 306 352 18,700 2,400 Climbing FAA TRACON SMA TRACON (SMA)
04:46PM 39.9406 -80.2219 182° South 306 352 19,800 2,280 Climbing FAA TRACON SMA TRACON (SMA)
04:47PM 39.8519 -80.2261 183° South 433 498 22,200 2,700 Climbing Cleveland Center
04:49PM 39.7139 -80.2369 183° South 315 362 26,200 2,400 Climbing Washington Center
04:50PM 39.6303 -80.2422 183° South 310 357 28,300 1,980 Climbing Washington Center
04:51PM 39.5467 -80.2475 183° South 310 357 30,200 1,680 Climbing Washington Center
04:52PM 39.4650 -80.2531 183° South 310 357 31,800 960 Climbing Washington Center
04:53PM 39.3836 -80.2586 183° South 305 351 32,200 600 Climbing Washington Center
04:54PM 39.2958 -80.2636 189° South 310 357 33,000 1,080 Climbing Washington Center
04:55PM 39.2139 -80.2797 192° South 310 357 34,400 1,560 Climbing Washington Center
04:56PM 39.1358 -80.3017 192° South 305 351 36,200 1,440 Climbing Washington Center
04:57PM 39.0581 -80.3233 194° South 297 342 37,300 960 Climbing Washington Center
04:58PM 38.9819 -80.3478 191° South 292 336 38,200 660 Climbing Washington Center
04:59PM 38.8978 -80.3689 185° South 298 343 38,700 480 Climbing Washington Center
05:00PM 38.8078 -80.3792 193° South 324 373 39,200 600 Climbing Washington Center
05:01PM 38.7253 -80.4031 186° South 333 383 39,900 360 Climbing Washington Center
05:02PM 38.6311 -80.4156 184° South 339 390 40,000  Climbing Washington Center
05:03PM 38.5325 -80.4250 185° South 351 404 40,000  Level Washington Center
05:04PM 38.4175 -80.4386 187° South 368 423 40,000  Level Washington Center
05:05PM 38.3144 -80.4558 185° South 373 429 40,000  Level Washington Center
05:06PM 38.2078 -80.4672 186° South 373 429 40,000  Level Washington Center
05:07PM 38.1111 -80.4794 186° South 384 442 40,000  Level Washington Center
05:08PM 38.0083 -80.4939 185° South 389 448 40,000  Level Washington Center
05:09PM 37.9058 -80.5056 186° South 389 448 40,000  Level Washington Center
05:10PM 37.8050 -80.5200 185° South 383 441 40,000  Level Washington Center
05:12PM 37.5847 -80.5458 186° South 362 417 40,000  Level Atlanta Center
05:13PM 37.4933 -80.5578 185° South 368 423 40,000  Level Atlanta Center
05:14PM 37.3875 -80.5703 186° South 378 435 40,000  Level Atlanta Center
05:15PM 37.2794 -80.5856 186° South 389 448 40,000  Level Atlanta Center
05:16PM 37.1717 -80.6008 185° South 389 448 40,000  Level Atlanta Center
05:17PM 37.0511 -80.6139 185° South 389 448 40,000  Level Atlanta Center
05:18PM 36.9408 -80.6264 186° South 395 455 40,000  Level Atlanta Center
05:19PM 36.8308 -80.6414 184° South 395 455 40,000  Level Atlanta Center
05:20PM 36.7331 -80.6508 185° South 405 466 40,000  Level Atlanta Center
05:21PM 36.6228 -80.6633 187° South 405 466 40,000  Level Atlanta Center
05:22PM 36.5150 -80.6808 185° South 405 466 40,000  Level Atlanta Center
05:23PM 36.4089 -80.6928 186° South 400 460 40,000  Level Atlanta Center
05:24PM 36.2967 -80.7078 185° South 395 455 40,000  Level Atlanta Center
05:25PM 36.1906 -80.7200 187° South 395 455 40,000  Level Atlanta Center
05:26PM 36.0744 -80.7375 184° South 389 448 40,000  Level Atlanta Center
05:27PM 35.9661 -80.7472 186° South 389 448 40,000  Level Atlanta Center
05:28PM 35.8561 -80.7617 185° South 394 453 40,000  Level Atlanta Center
05:29PM 35.7478 -80.7739 185° South 394 453 40,000  Level Atlanta Center
05:30PM 35.6375 -80.7858 186° South 394 453 40,000  Level Atlanta Center
05:31PM 35.5275 -80.8006 185° South 399 459 40,000  Level Atlanta Center
05:32PM 35.4275 -80.8119 186° South 405 466 40,000  Level Atlanta Center
05:33PM 35.3175 -80.8267 185° South 405 466 40,000  Level Atlanta Center
05:34PM 35.2072 -80.8383 187° South 405 466 40,000  Level Atlanta Center
05:36PM 34.9406 -80.8769 184° South 403 464 40,000  Level Jacksonville Center
05:37PM 34.8322 -80.8869 188° South 403 464 40,000  Level Jacksonville Center
05:38PM 34.7242 -80.9047 186° South 398 458 40,000  Level Jacksonville Center
05:39PM 34.6222 -80.9172 184° South 382 440 40,000  Level Jacksonville Center
05:40PM 34.5200 -80.9269 180° South 376 433 40,000  Level Jacksonville Center
05:41PM 34.4158 -80.9269 183° South 376 433 40,000  Level Jacksonville Center
05:42PM 34.3072 -80.9342 182° South 383 441 40,000  Level Jacksonville Center
05:43PM 34.2031 -80.9392 180° South 383 441 40,000  Level Jacksonville Center
05:44PM 34.0967 -80.9392 183° South 383 441 40,000  Level Jacksonville Center
05:45PM 33.9903 -80.9464 181° South 383 441 40,000  Level Jacksonville Center
05:46PM 33.8842 -80.9489 183° South 383 441 40,000  Level Jacksonville Center
05:47PM 33.7736 -80.9561 180° South 383 441 40,000  Level Jacksonville Center
05:48PM 33.6650 -80.9561 182° South 383 441 40,000  Level Jacksonville Center
05:49PM 33.5650 -80.9608 182° South 388 447 40,000  Level Jacksonville Center
05:50PM 33.4544 -80.9656 182° South 393 452 40,000  Level Jacksonville Center
05:51PM 33.3439 -80.9706 182° South 398 458 40,000  Level Jacksonville Center
05:52PM 33.2353 -80.9753 182° South 398 458 40,000  Level Jacksonville Center
05:53PM 33.1228 -80.9803 181° South 403 464 40,000  Level Jacksonville Center
05:54PM 33.0122 -80.9828 182° South 403 464 40,000  Level Jacksonville Center
05:55PM 32.9017 -80.9875 182° South 403 464 40,000  Level Jacksonville Center
05:56PM 32.7869 -80.9925 181° South 408 470 40,000  Level Jacksonville Center
05:57PM 32.6742 -80.9947 182° South 408 470 40,000  Level Jacksonville Center
05:58PM 32.5636 -80.9994 182° South 408 470 40,000  Level Jacksonville Center
05:59PM 32.4489 -81.0044 181° South 402 463 40,000  Level Jacksonville Center
06:00PM 32.3403 -81.0067 182° South 402 463 40,000  Level Jacksonville Center
06:01PM 32.2153 -81.0117 181° South 402 463 40,000  Level Jacksonville Center
06:02PM 32.0983 -81.0139 182° South 408 470 40,000  Level Jacksonville Center
06:03PM 31.9961 -81.0186 182° South 414 476 40,000  Level Jacksonville Center
06:04PM 31.8814 -81.0233 182° South 414 476 40,000  Level Jacksonville Center
06:05PM 31.7686 -81.0281 181° South 414 476 40,000  Level Jacksonville Center
06:06PM 31.6558 -81.0303 182° South 403 464 40,000  Level Jacksonville Center
06:07PM 31.5328 -81.0353 182° South 403 464 40,000  Level Jacksonville Center
06:08PM 31.4181 -81.0400 181° South 408 470 40,000  Level Jacksonville Center
06:09PM 31.3117 -81.0419 182° South 419 482 40,000  Level Jacksonville Center
06:10PM 31.1969 -81.0467 180° South 419 482 40,000  Level Jacksonville Center
06:11PM 31.0819 -81.0467 183° South 419 482 40,000 -420 Level Jacksonville Center
06:12PM 30.9694 -81.0536 182° South 419 482 39,200 -1,260 Descending Jacksonville Center
06:13PM 30.8567 -81.0583 182° South 413 475 37,500 -1,920 Descending Jacksonville Center
06:14PM 30.7483 -81.0628 182° South 406 467 35,400 -1,800 Descending Jacksonville Center
06:15PM 30.6397 -81.0672 182° South 394 453 34,000 -720 Descending Jacksonville Center
06:16PM 30.5250 -81.0719 181° South 406 467 34,000  Level Jacksonville Center
06:17PM 30.4103 -81.0742 183° South 412 474 34,000 -600 Level Jacksonville Center
06:18PM 30.2953 -81.0811 181° South 417 480 32,800 -1,440 Descending Jacksonville Center
06:19PM 30.1786 -81.0833 182° South 422 486 31,200 -1,680 Descending Jacksonville Center
06:20PM 30.0639 -81.0878 183° South 422 486 29,500 -1,740 Descending Jacksonville Center
06:21PM 29.9469 -81.0947 181° South 422 486 27,800 -1,680 Descending Jacksonville Center
06:22PM 29.8258 -81.0969 183° South 422 486 26,200 -1,680 Descending Jacksonville Center
06:23PM 29.7028 -81.1042 181° South 434 499 24,500 -1,980 Descending Jacksonville Center
06:24PM 29.5839 -81.1064 181° South 440 506 22,300 -2,340 Descending Jacksonville Center
06:25PM 29.4692 -81.1083 182° South 430 495 19,900 -2,640 Descending Jacksonville Center
06:26PM 29.3564 -81.1128 179° South 416 479 17,100 -2,400 Descending Jacksonville Center
06:27PM 29.2500 -81.1100 175° South 396 456 15,200 -1,980 Descending Jacksonville Center
06:28PM 29.1433 -81.1000 175° South 396 456 13,200 -1,620 Descending Jacksonville Center
06:29PM 29.0431 -81.0900 174° South 384 442 12,000 -840 Descending Jacksonville Center
06:30PM 28.9428 -81.0775 172° South 373 429 11,600 -900 Descending Jacksonville Center
06:31PM 28.8547 -81.0625 187° South 351 404 10,200 -1,320 Descending Jacksonville Center
06:32PM 28.7736 -81.0736 228° Southwest 329 379 9,000 -600 Descending Jacksonville Center
06:33PM 28.7222 -81.1383 194° South 273 314 9,000  Level Jacksonville Center
06:34PM 28.6453 -81.1608 171° South 278 320 9,000  Level Jacksonville Center
06:34PM 28.5833 -81.1500 168° South 295 339 9,000 60 Level Orlando TRACON
06:35PM 28.5167 -81.1333 192° South 257 296 9,100 -300 Climbing Orlando TRACON
06:36PM 28.4500 -81.1500 210° Southwest 236 272 8,500 -1,620 Descending Orlando TRACON
06:37PM 28.4000 -81.1833 180° South 238 274 6,000 -2,100 Descending Orlando TRACON
06:38PM 28.3333 -81.1833 221° Southwest 242 278 4,300 -1,680 Descending Orlando TRACON
06:39PM 28.3000 -81.2167 254° West 211 243 2,900 -1,200 Descending Orlando TRACON
06:40PM 28.2833 -81.2833 319° Northwest 204 235 2,000 -480 Descending Orlando TRACON
06:41PM 28.3167 -81.3167 360° North 171 197 2,000 -360 Level Orlando TRACON
06:42PM 28.3500 -81.3167 360° North 130 150 1,400 -720 Descending Orlando TRACON
06:43PM 28.4000 -81.3167 41° Northeast 127 146 600 -780 Descending Orlando TRACON
06:51PM 28.4167 -81.3000 328° Northwest  Level FlightAware Approximate
06:52PM 28.5027 -81.3608 148° Southeast  Level Estimated
06:53PM 28.4167 -81.3000 328° Northwest  Level FlightAware Approximate
06:54PM 28.5027 -81.3608 148° Southeast  Level Estimated
06:55PM 28.4167 -81.3000 328° Northwest  Level FlightAware Approximate
06:56PM 28.5027 -81.3608 148° Southeast  Level Estimated
06:57PM 28.4167 -81.3000 328° Northwest  Level FlightAware Approximate
06:58PM 28.5027 -81.3608 148° Southeast  Level Estimated
06:59PM 28.4167 -81.3000 328° Northwest  Level FlightAware Approximate
07:00PM 28.5027 -81.3608 328° Northwest  Level Estimated